sensor_id;sensor_type;location;lat;lon;timestamp;temperature;humidity
26599;DHT22;14240;51.064;16.612;2022-09-01T00:02:03;15.20;99.90
26599;DHT22;14240;51.064;16.612;2022-09-01T00:04:34;15.20;99.90
26599;DHT22;14240;51.064;16.612;2022-09-01T00:07:00;15.20;99.90
26599;DHT22;14240;51.064;16.612;2022-09-01T00:09:26;15.20;99.90
26599;DHT22;14240;51.064;16.612;2022-09-01T00:11:53;15.20;99.90
26599;DHT22;14240;51.064;16.612;2022-09-01T00:14:22;15.20;99.90
26599;DHT22;14240;51.064;16.612;2022-09-01T00:16:48;15.20;99.90
26599;DHT22;14240;51.064;16.612;2022-09-01T00:19:14;15.20;99.90
26599;DHT22;14240;51.064;16.612;2022-09-01T00:21:42;15.20;99.90
26599;DHT22;14240;51.064;16.612;2022-09-01T00:24:09;15.20;99.90
26599;DHT22;14240;51.064;16.612;2022-09-01T00:26:35;15.20;99.90
26599;DHT22;14240;51.064;16.612;2022-09-01T00:29:01;15.20;99.90
26599;DHT22;14240;51.064;16.612;2022-09-01T00:31:27;15.20;99.90
26599;DHT22;14240;51.064;16.612;2022-09-01T00:33:53;15.20;99.90
26599;DHT22;14240;51.064;16.612;2022-09-01T00:36:19;15.20;99.90
26599;DHT22;14240;51.064;16.612;2022-09-01T00:38:45;15.10;99.90
26599;DHT22;14240;51.064;16.612;2022-09-01T00:41:12;15.10;99.90
26599;DHT22;14240;51.064;16.612;2022-09-01T00:46:11;15.00;99.90
26599;DHT22;14240;51.064;16.612;2022-09-01T00:48:37;15.00;99.90
26599;DHT22;14240;51.064;16.612;2022-09-01T00:51:04;15.00;99.90
26599;DHT22;14240;51.064;16.612;2022-09-01T00:53:32;15.00;99.90
26599;DHT22;14240;51.064;16.612;2022-09-01T00:55:58;15.00;99.90
26599;DHT22;14240;51.064;16.612;2022-09-01T00:58:24;15.00;99.90
26599;DHT22;14240;51.064;16.612;2022-09-01T01:00:52;15.00;99.90
26599;DHT22;14240;51.064;16.612;2022-09-01T01:03:19;15.00;99.90
26599;DHT22;14240;51.064;16.612;2022-09-01T01:05:51;15.00;99.90
26599;DHT22;14240;51.064;16.612;2022-09-01T01:08:26;15.00;99.90
26599;DHT22;14240;51.064;16.612;2022-09-01T01:11:16;14.90;99.90
26599;DHT22;14240;51.064;16.612;2022-09-01T01:13:51;14.90;99.90
26599;DHT22;14240;51.064;16.612;2022-09-01T01:16:19;14.90;99.90
26599;DHT22;14240;51.064;16.612;2022-09-01T01:18:45;14.90;99.90
26599;DHT22;14240;51.064;16.612;2022-09-01T01:26:42;14.90;99.90
26599;DHT22;14240;51.064;16.612;2022-09-01T01:29:09;14.80;99.90
26599;DHT22;14240;51.064;16.612;2022-09-01T01:31:36;14.90;99.90
26599;DHT22;14240;51.064;16.612;2022-09-01T01:34:03;14.80;99.90
26599;DHT22;14240;51.064;16.612;2022-09-01T01:36:35;14.80;99.90
26599;DHT22;14240;51.064;16.612;2022-09-01T01:39:12;14.80;99.90
26599;DHT22;14240;51.064;16.612;2022-09-01T01:41:40;14.80;99.90
26599;DHT22;14240;51.064;16.612;2022-09-01T01:44:08;14.70;99.90
26599;DHT22;14240;51.064;16.612;2022-09-01T01:46:35;14.70;99.90
26599;DHT22;14240;51.064;16.612;2022-09-01T01:49:02;14.80;99.90
26599;DHT22;14240;51.064;16.612;2022-09-01T01:51:29;14.70;99.90
26599;DHT22;14240;51.064;16.612;2022-09-01T01:53:58;14.70;99.90
26599;DHT22;14240;51.064;16.612;2022-09-01T01:56:26;14.70;99.90
26599;DHT22;14240;51.064;16.612;2022-09-01T01:58:53;14.70;99.90
26599;DHT22;14240;51.064;16.612;2022-09-01T02:01:22;14.70;99.90
26599;DHT22;14240;51.064;16.612;2022-09-01T02:03:50;14.70;99.90
26599;DHT22;14240;51.064;16.612;2022-09-01T02:06:17;14.70;99.90
26599;DHT22;14240;51.064;16.612;2022-09-01T02:08:47;14.70;99.90
26599;DHT22;14240;51.064;16.612;2022-09-01T02:11:12;14.70;99.90
26599;DHT22;14240;51.064;16.612;2022-09-01T02:13:41;14.70;99.90
26599;DHT22;14240;51.064;16.612;2022-09-01T02:16:09;14.70;99.90
26599;DHT22;14240;51.064;16.612;2022-09-01T02:18:41;14.70;99.90
26599;DHT22;14240;51.064;16.612;2022-09-01T02:21:10;14.70;99.90
26599;DHT22;14240;51.064;16.612;2022-09-01T02:23:37;14.80;99.90
26599;DHT22;14240;51.064;16.612;2022-09-01T02:26:07;14.70;99.90
26599;DHT22;14240;51.064;16.612;2022-09-01T02:28:35;14.60;99.90
26599;DHT22;14240;51.064;16.612;2022-09-01T02:31:03;14.60;99.90
26599;DHT22;14240;51.064;16.612;2022-09-01T02:33:29;14.60;99.90
26599;DHT22;14240;51.064;16.612;2022-09-01T02:36:00;14.60;99.90
26599;DHT22;14240;51.064;16.612;2022-09-01T02:38:27;14.60;99.90
26599;DHT22;14240;51.064;16.612;2022-09-01T02:40:57;14.60;99.90
26599;DHT22;14240;51.064;16.612;2022-09-01T02:43:24;14.70;99.90
26599;DHT22;14240;51.064;16.612;2022-09-01T02:45:53;14.70;99.90
26599;DHT22;14240;51.064;16.612;2022-09-01T02:48:21;14.70;99.90
26599;DHT22;14240;51.064;16.612;2022-09-01T02:50:51;14.70;99.90
26599;DHT22;14240;51.064;16.612;2022-09-01T02:53:17;15.40;99.90
26599;DHT22;14240;51.064;16.612;2022-09-01T02:55:44;14.70;99.90
26599;DHT22;14240;51.064;16.612;2022-09-01T02:58:10;14.70;99.90
26599;DHT22;14240;51.064;16.612;2022-09-01T03:00:41;14.60;99.90
26599;DHT22;14240;51.064;16.612;2022-09-01T03:03:08;14.60;99.90
26599;DHT22;14240;51.064;16.612;2022-09-01T03:05:34;14.60;99.90
26599;DHT22;14240;51.064;16.612;2022-09-01T03:08:06;14.60;99.90
26599;DHT22;14240;51.064;16.612;2022-09-01T03:10:38;14.60;99.90
26599;DHT22;14240;51.064;16.612;2022-09-01T03:13:09;14.60;99.90
26599;DHT22;14240;51.064;16.612;2022-09-01T03:15:35;14.60;99.90
26599;DHT22;14240;51.064;16.612;2022-09-01T03:18:03;14.60;99.90
26599;DHT22;14240;51.064;16.612;2022-09-01T03:20:31;14.50;99.90
26599;DHT22;14240;51.064;16.612;2022-09-01T03:22:59;14.60;99.90
26599;DHT22;14240;51.064;16.612;2022-09-01T03:25:25;14.60;99.90
26599;DHT22;14240;51.064;16.612;2022-09-01T03:27:55;14.50;99.90
26599;DHT22;14240;51.064;16.612;2022-09-01T03:30:27;14.50;99.90
26599;DHT22;14240;51.064;16.612;2022-09-01T03:32:57;14.50;99.90
26599;DHT22;14240;51.064;16.612;2022-09-01T03:35:24;14.50;99.90
26599;DHT22;14240;51.064;16.612;2022-09-01T03:37:51;14.50;99.90
26599;DHT22;14240;51.064;16.612;2022-09-01T03:40:17;14.40;99.90
26599;DHT22;14240;51.064;16.612;2022-09-01T03:42:43;14.50;99.90
26599;DHT22;14240;51.064;16.612;2022-09-01T03:45:10;14.50;99.90
26599;DHT22;14240;51.064;16.612;2022-09-01T03:47:39;14.50;99.90
26599;DHT22;14240;51.064;16.612;2022-09-01T03:50:13;14.50;99.90
26599;DHT22;14240;51.064;16.612;2022-09-01T03:52:46;14.40;99.90
26599;DHT22;14240;51.064;16.612;2022-09-01T03:55:14;14.40;99.90
26599;DHT22;14240;51.064;16.612;2022-09-01T03:57:51;14.40;99.90
26599;DHT22;14240;51.064;16.612;2022-09-01T04:00:19;14.40;99.90
26599;DHT22;14240;51.064;16.612;2022-09-01T04:02:52;14.50;99.90
26599;DHT22;14240;51.064;16.612;2022-09-01T04:05:20;14.40;99.90
26599;DHT22;14240;51.064;16.612;2022-09-01T04:07:49;14.40;99.90
26599;DHT22;14240;51.064;16.612;2022-09-01T04:10:16;14.40;99.90
26599;DHT22;14240;51.064;16.612;2022-09-01T04:12:43;14.40;99.90
26599;DHT22;14240;51.064;16.612;2022-09-01T04:15:10;14.40;99.90
26599;DHT22;14240;51.064;16.612;2022-09-01T04:17:36;14.40;99.90
26599;DHT22;14240;51.064;16.612;2022-09-01T04:20:21;14.30;99.90
26599;DHT22;14240;51.064;16.612;2022-09-01T04:22:48;14.40;99.90
26599;DHT22;14240;51.064;16.612;2022-09-01T04:25:16;14.40;99.90
26599;DHT22;14240;51.064;16.612;2022-09-01T04:27:41;14.40;99.90
26599;DHT22;14240;51.064;16.612;2022-09-01T04:30:11;14.40;99.90
26599;DHT22;14240;51.064;16.612;2022-09-01T04:32:37;14.40;99.90
26599;DHT22;14240;51.064;16.612;2022-09-01T04:35:04;14.40;99.90
26599;DHT22;14240;51.064;16.612;2022-09-01T04:37:31;14.40;99.90
26599;DHT22;14240;51.064;16.612;2022-09-01T04:40:01;14.50;99.90
26599;DHT22;14240;51.064;16.612;2022-09-01T04:42:29;14.50;99.90
26599;DHT22;14240;51.064;16.612;2022-09-01T04:44:56;14.50;99.90
26599;DHT22;14240;51.064;16.612;2022-09-01T04:47:25;14.50;99.90
26599;DHT22;14240;51.064;16.612;2022-09-01T04:49:57;14.50;99.90
26599;DHT22;14240;51.064;16.612;2022-09-01T04:52:28;14.50;99.90
26599;DHT22;14240;51.064;16.612;2022-09-01T04:54:53;14.50;99.90
26599;DHT22;14240;51.064;16.612;2022-09-01T04:57:22;14.50;99.90
26599;DHT22;14240;51.064;16.612;2022-09-01T04:59:54;14.50;99.90
26599;DHT22;14240;51.064;16.612;2022-09-01T05:02:21;14.50;99.90
26599;DHT22;14240;51.064;16.612;2022-09-01T05:04:51;14.60;99.90
26599;DHT22;14240;51.064;16.612;2022-09-01T05:07:19;14.60;99.90
26599;DHT22;14240;51.064;16.612;2022-09-01T05:09:45;14.60;99.90
26599;DHT22;14240;51.064;16.612;2022-09-01T05:12:11;14.60;99.90
26599;DHT22;14240;51.064;16.612;2022-09-01T05:14:43;14.70;99.90
26599;DHT22;14240;51.064;16.612;2022-09-01T05:17:10;14.70;99.90
26599;DHT22;14240;51.064;16.612;2022-09-01T05:19:41;14.80;99.90
26599;DHT22;14240;51.064;16.612;2022-09-01T05:22:08;14.80;99.90
26599;DHT22;14240;51.064;16.612;2022-09-01T05:24:36;14.80;99.90
26599;DHT22;14240;51.064;16.612;2022-09-01T05:27:06;14.90;99.90
26599;DHT22;14240;51.064;16.612;2022-09-01T05:29:32;14.90;99.90
26599;DHT22;14240;51.064;16.612;2022-09-01T05:31:58;15.00;99.90
26599;DHT22;14240;51.064;16.612;2022-09-01T05:34:25;15.00;99.90
26599;DHT22;14240;51.064;16.612;2022-09-01T05:36:53;15.00;99.90
26599;DHT22;14240;51.064;16.612;2022-09-01T05:39:21;15.10;99.90
26599;DHT22;14240;51.064;16.612;2022-09-01T05:41:47;15.10;99.90
26599;DHT22;14240;51.064;16.612;2022-09-01T05:44:14;15.10;99.90
26599;DHT22;14240;51.064;16.612;2022-09-01T05:46:40;15.20;99.90
26599;DHT22;14240;51.064;16.612;2022-09-01T05:49:09;15.30;99.90
26599;DHT22;14240;51.064;16.612;2022-09-01T05:51:43;15.30;99.90
26599;DHT22;14240;51.064;16.612;2022-09-01T05:54:09;15.30;99.90
26599;DHT22;14240;51.064;16.612;2022-09-01T05:56:37;15.30;99.90
26599;DHT22;14240;51.064;16.612;2022-09-01T05:59:07;15.40;99.90
26599;DHT22;14240;51.064;16.612;2022-09-01T06:01:33;15.40;99.90
26599;DHT22;14240;51.064;16.612;2022-09-01T06:04:00;15.50;99.90
26599;DHT22;14240;51.064;16.612;2022-09-01T06:06:30;15.50;99.90
26599;DHT22;14240;51.064;16.612;2022-09-01T06:08:59;15.60;99.90
26599;DHT22;14240;51.064;16.612;2022-09-01T06:11:26;15.60;99.90
26599;DHT22;14240;51.064;16.612;2022-09-01T06:14:00;15.70;99.90
26599;DHT22;14240;51.064;16.612;2022-09-01T06:16:26;15.70;99.90
26599;DHT22;14240;51.064;16.612;2022-09-01T06:18:54;15.80;99.90
26599;DHT22;14240;51.064;16.612;2022-09-01T06:21:21;15.90;99.90
26599;DHT22;14240;51.064;16.612;2022-09-01T06:23:50;15.90;99.90
26599;DHT22;14240;51.064;16.612;2022-09-01T06:26:20;16.00;99.90
26599;DHT22;14240;51.064;16.612;2022-09-01T06:28:48;16.10;99.90
26599;DHT22;14240;51.064;16.612;2022-09-01T06:31:24;16.20;99.90
26599;DHT22;14240;51.064;16.612;2022-09-01T06:33:51;16.30;99.90
26599;DHT22;14240;51.064;16.612;2022-09-01T06:36:21;16.30;99.90
26599;DHT22;14240;51.064;16.612;2022-09-01T06:38:49;16.40;99.90
26599;DHT22;14240;51.064;16.612;2022-09-01T06:41:16;16.40;99.90
26599;DHT22;14240;51.064;16.612;2022-09-01T06:43:47;16.50;99.90
26599;DHT22;14240;51.064;16.612;2022-09-01T06:46:14;16.60;99.90
26599;DHT22;14240;51.064;16.612;2022-09-01T06:48:40;16.60;99.90
26599;DHT22;14240;51.064;16.612;2022-09-01T06:51:12;16.70;99.90
26599;DHT22;14240;51.064;16.612;2022-09-01T06:53:39;16.70;99.90
26599;DHT22;14240;51.064;16.612;2022-09-01T06:56:04;16.80;99.90
26599;DHT22;14240;51.064;16.612;2022-09-01T06:58:30;16.80;99.90
26599;DHT22;14240;51.064;16.612;2022-09-01T07:00:56;16.90;99.90
26599;DHT22;14240;51.064;16.612;2022-09-01T07:03:22;17.00;99.90
26599;DHT22;14240;51.064;16.612;2022-09-01T07:05:48;17.10;99.90
26599;DHT22;14240;51.064;16.612;2022-09-01T07:08:16;17.30;99.90
26599;DHT22;14240;51.064;16.612;2022-09-01T07:10:46;17.40;99.90
26599;DHT22;14240;51.064;16.612;2022-09-01T07:13:13;17.50;99.90
26599;DHT22;14240;51.064;16.612;2022-09-01T07:15:45;17.60;99.90
26599;DHT22;14240;51.064;16.612;2022-09-01T07:18:21;17.70;99.90
26599;DHT22;14240;51.064;16.612;2022-09-01T07:20:50;17.70;99.90
26599;DHT22;14240;51.064;16.612;2022-09-01T07:23:18;17.80;99.90
26599;DHT22;14240;51.064;16.612;2022-09-01T07:25:49;17.90;99.90
26599;DHT22;14240;51.064;16.612;2022-09-01T07:28:16;18.00;99.90
26599;DHT22;14240;51.064;16.612;2022-09-01T07:30:45;18.10;99.90
26599;DHT22;14240;51.064;16.612;2022-09-01T07:33:14;18.20;99.90
26599;DHT22;14240;51.064;16.612;2022-09-01T07:35:41;18.20;99.90
26599;DHT22;14240;51.064;16.612;2022-09-01T07:38:07;18.30;99.90
26599;DHT22;14240;51.064;16.612;2022-09-01T07:40:35;18.30;99.90
26599;DHT22;14240;51.064;16.612;2022-09-01T07:43:05;18.40;99.90
26599;DHT22;14240;51.064;16.612;2022-09-01T07:45:33;18.50;99.90
26599;DHT22;14240;51.064;16.612;2022-09-01T07:48:02;18.60;99.90
26599;DHT22;14240;51.064;16.612;2022-09-01T07:50:34;18.70;99.90
26599;DHT22;14240;51.064;16.612;2022-09-01T07:53:02;18.90;99.90
26599;DHT22;14240;51.064;16.612;2022-09-01T07:55:27;19.10;99.90
26599;DHT22;14240;51.064;16.612;2022-09-01T07:57:54;19.30;99.90
26599;DHT22;14240;51.064;16.612;2022-09-01T08:00:19;19.50;99.90
26599;DHT22;14240;51.064;16.612;2022-09-01T08:02:46;19.60;99.90
26599;DHT22;14240;51.064;16.612;2022-09-01T08:05:15;19.70;99.90
26599;DHT22;14240;51.064;16.612;2022-09-01T08:07:43;19.70;99.90
26599;DHT22;14240;51.064;16.612;2022-09-01T08:10:11;19.60;99.90
26599;DHT22;14240;51.064;16.612;2022-09-01T08:12:37;19.60;99.90
26599;DHT22;14240;51.064;16.612;2022-09-01T08:15:07;19.60;99.90
26599;DHT22;14240;51.064;16.612;2022-09-01T08:17:33;19.50;99.90
26599;DHT22;14240;51.064;16.612;2022-09-01T08:20:00;19.50;99.90
26599;DHT22;14240;51.064;16.612;2022-09-01T08:22:26;19.40;99.90
26599;DHT22;14240;51.064;16.612;2022-09-01T08:24:53;19.30;99.90
26599;DHT22;14240;51.064;16.612;2022-09-01T08:27:18;19.30;99.90
26599;DHT22;14240;51.064;16.612;2022-09-01T08:29:44;19.20;99.90
26599;DHT22;14240;51.064;16.612;2022-09-01T08:32:10;19.20;99.90
26599;DHT22;14240;51.064;16.612;2022-09-01T08:34:36;19.30;99.90
26599;DHT22;14240;51.064;16.612;2022-09-01T08:37:03;19.50;99.90
26599;DHT22;14240;51.064;16.612;2022-09-01T08:39:29;19.80;99.90
26599;DHT22;14240;51.064;16.612;2022-09-01T08:42:07;20.10;99.90
26599;DHT22;14240;51.064;16.612;2022-09-01T08:47:13;20.20;99.90
26599;DHT22;14240;51.064;16.612;2022-09-01T08:49:40;20.40;99.90
26599;DHT22;14240;51.064;16.612;2022-09-01T08:54:51;20.60;99.90
26599;DHT22;14240;51.064;16.612;2022-09-01T08:57:28;20.60;99.90
26599;DHT22;14240;51.064;16.612;2022-09-01T08:59:55;20.60;99.90
26599;DHT22;14240;51.064;16.612;2022-09-01T09:10:35;20.90;99.90
26599;DHT22;14240;51.064;16.612;2022-09-01T09:13:14;21.00;99.90
26599;DHT22;14240;51.064;16.612;2022-09-01T09:15:46;21.00;99.90
26599;DHT22;14240;51.064;16.612;2022-09-01T09:20:47;21.00;99.90
26599;DHT22;14240;51.064;16.612;2022-09-01T09:23:37;20.90;99.90
26599;DHT22;14240;51.064;16.612;2022-09-01T09:26:05;20.70;99.90
26599;DHT22;14240;51.064;16.612;2022-09-01T09:28:30;20.80;99.90
26599;DHT22;14240;51.064;16.612;2022-09-01T09:33:57;20.90;99.90
26599;DHT22;14240;51.064;16.612;2022-09-01T09:36:33;20.90;99.90
26599;DHT22;14240;51.064;16.612;2022-09-01T09:39:11;20.90;99.90
26599;DHT22;14240;51.064;16.612;2022-09-01T09:41:39;20.90;99.90
26599;DHT22;14240;51.064;16.612;2022-09-01T09:46:45;20.80;99.90
26599;DHT22;14240;51.064;16.612;2022-09-01T09:49:27;20.70;99.90
26599;DHT22;14240;51.064;16.612;2022-09-01T09:52:12;20.60;99.90
26599;DHT22;14240;51.064;16.612;2022-09-01T09:54:41;21.00;99.90
26599;DHT22;14240;51.064;16.612;2022-09-01T09:57:21;20.40;99.90
26599;DHT22;14240;51.064;16.612;2022-09-01T10:00:17;20.20;99.90
26599;DHT22;14240;51.064;16.612;2022-09-01T10:02:44;20.10;99.90
26599;DHT22;14240;51.064;16.612;2022-09-01T10:07:55;19.90;99.90
26599;DHT22;14240;51.064;16.612;2022-09-01T10:10:26;19.90;99.90
26599;DHT22;14240;51.064;16.612;2022-09-01T10:12:53;19.80;99.90
26599;DHT22;14240;51.064;16.612;2022-09-01T10:15:23;19.80;99.90
26599;DHT22;14240;51.064;16.612;2022-09-01T10:17:51;19.80;99.90
26599;DHT22;14240;51.064;16.612;2022-09-01T10:20:21;19.80;99.90
26599;DHT22;14240;51.064;16.612;2022-09-01T10:22:48;19.90;99.90
26599;DHT22;14240;51.064;16.612;2022-09-01T10:25:23;20.00;99.90
26599;DHT22;14240;51.064;16.612;2022-09-01T10:28:01;20.20;99.90
26599;DHT22;14240;51.064;16.612;2022-09-01T10:30:29;20.40;99.90
26599;DHT22;14240;51.064;16.612;2022-09-01T10:32:59;20.40;99.90
26599;DHT22;14240;51.064;16.612;2022-09-01T10:35:27;20.40;99.90
26599;DHT22;14240;51.064;16.612;2022-09-01T10:37:54;20.40;99.90
26599;DHT22;14240;51.064;16.612;2022-09-01T10:42:55;20.30;99.90
26599;DHT22;14240;51.064;16.612;2022-09-01T10:45:36;20.30;99.90
26599;DHT22;14240;51.064;16.612;2022-09-01T10:48:25;20.40;99.90
26599;DHT22;14240;51.064;16.612;2022-09-01T10:50:53;20.60;99.90
26599;DHT22;14240;51.064;16.612;2022-09-01T10:53:55;20.60;99.90
26599;DHT22;14240;51.064;16.612;2022-09-01T10:56:40;20.60;99.60
26599;DHT22;14240;51.064;16.612;2022-09-01T10:59:26;20.50;99.80
26599;DHT22;14240;51.064;16.612;2022-09-01T11:15:29;19.70;99.90
26599;DHT22;14240;51.064;16.612;2022-09-01T11:20:32;19.60;99.90
26599;DHT22;14240;51.064;16.612;2022-09-01T11:23:27;19.60;99.90
26599;DHT22;14240;51.064;16.612;2022-09-01T11:33:28;19.60;99.90
26599;DHT22;14240;51.064;16.612;2022-09-01T11:36:04;19.60;99.90
26599;DHT22;14240;51.064;16.612;2022-09-01T11:38:53;19.60;99.90
26599;DHT22;14240;51.064;16.612;2022-09-01T11:41:27;19.70;99.90
26599;DHT22;14240;51.064;16.612;2022-09-01T11:43:57;19.70;99.90
26599;DHT22;14240;51.064;16.612;2022-09-01T11:46:32;19.80;99.90
26599;DHT22;14240;51.064;16.612;2022-09-01T11:49:02;19.80;99.90
26599;DHT22;14240;51.064;16.612;2022-09-01T11:51:38;19.80;99.90
26599;DHT22;14240;51.064;16.612;2022-09-01T11:54:06;19.90;99.90
26599;DHT22;14240;51.064;16.612;2022-09-01T11:56:32;19.90;99.90
26599;DHT22;14240;51.064;16.612;2022-09-01T11:58:57;19.90;99.90
26599;DHT22;14240;51.064;16.612;2022-09-01T12:01:33;19.90;99.90
26599;DHT22;14240;51.064;16.612;2022-09-01T12:04:23;20.00;99.90
26599;DHT22;14240;51.064;16.612;2022-09-01T12:07:03;20.00;99.90
26599;DHT22;14240;51.064;16.612;2022-09-01T12:09:41;20.00;99.90
26599;DHT22;14240;51.064;16.612;2022-09-01T12:14:58;20.10;99.90
26599;DHT22;14240;51.064;16.612;2022-09-01T12:17:24;20.10;99.90
26599;DHT22;14240;51.064;16.612;2022-09-01T12:19:50;20.20;99.60
26599;DHT22;14240;51.064;16.612;2022-09-01T12:22:18;20.10;99.40
26599;DHT22;14240;51.064;16.612;2022-09-01T12:24:49;20.20;99.50
26599;DHT22;14240;51.064;16.612;2022-09-01T12:27:15;20.20;99.40
26599;DHT22;14240;51.064;16.612;2022-09-01T12:29:42;20.30;99.50
26599;DHT22;14240;51.064;16.612;2022-09-01T12:32:08;20.30;99.30
26599;DHT22;14240;51.064;16.612;2022-09-01T12:34:45;20.40;98.70
26599;DHT22;14240;51.064;16.612;2022-09-01T12:37:21;20.50;98.30
26599;DHT22;14240;51.064;16.612;2022-09-01T12:39:51;20.50;97.80
26599;DHT22;14240;51.064;16.612;2022-09-01T12:44:50;20.70;97.40
26599;DHT22;14240;51.064;16.612;2022-09-01T12:52:48;20.90;94.80
26599;DHT22;14240;51.064;16.612;2022-09-01T12:55:18;20.90;94.40
26599;DHT22;14240;51.064;16.612;2022-09-01T12:57:48;20.90;94.10
26599;DHT22;14240;51.064;16.612;2022-09-01T13:00:22;20.90;93.60
26599;DHT22;14240;51.064;16.612;2022-09-01T13:02:48;21.00;93.50
26599;DHT22;14240;51.064;16.612;2022-09-01T13:05:36;21.00;93.70
26599;DHT22;14240;51.064;16.612;2022-09-01T13:10:48;21.20;92.90
26599;DHT22;14240;51.064;16.612;2022-09-01T13:13:15;21.20;92.60
26599;DHT22;14240;51.064;16.612;2022-09-01T13:15:44;21.30;92.60
26599;DHT22;14240;51.064;16.612;2022-09-01T13:18:10;21.40;92.50
26599;DHT22;14240;51.064;16.612;2022-09-01T13:20:36;21.50;92.10
26599;DHT22;14240;51.064;16.612;2022-09-01T13:23:02;21.60;92.00
26599;DHT22;14240;51.064;16.612;2022-09-01T13:25:28;21.60;91.80
26599;DHT22;14240;51.064;16.612;2022-09-01T13:27:53;21.60;91.30
26599;DHT22;14240;51.064;16.612;2022-09-01T13:30:22;21.60;91.20
26599;DHT22;14240;51.064;16.612;2022-09-01T13:32:48;21.50;91.40
26599;DHT22;14240;51.064;16.612;2022-09-01T13:35:17;21.50;91.70
26599;DHT22;14240;51.064;16.612;2022-09-01T13:37:44;21.40;92.30
26599;DHT22;14240;51.064;16.612;2022-09-01T13:40:10;21.30;92.40
26599;DHT22;14240;51.064;16.612;2022-09-01T13:42:40;21.30;92.00
26599;DHT22;14240;51.064;16.612;2022-09-01T13:45:06;21.60;91.70
26599;DHT22;14240;51.064;16.612;2022-09-01T13:47:32;21.30;90.70
26599;DHT22;14240;51.064;16.612;2022-09-01T13:49:59;21.30;90.30
26599;DHT22;14240;51.064;16.612;2022-09-01T13:52:24;21.30;90.40
26599;DHT22;14240;51.064;16.612;2022-09-01T13:54:50;21.20;90.50
26599;DHT22;14240;51.064;16.612;2022-09-01T13:57:16;21.20;90.70
26599;DHT22;14240;51.064;16.612;2022-09-01T13:59:42;21.10;90.20
26599;DHT22;14240;51.064;16.612;2022-09-01T14:02:09;21.00;90.60
26599;DHT22;14240;51.064;16.612;2022-09-01T14:04:35;21.00;90.00
26599;DHT22;14240;51.064;16.612;2022-09-01T14:07:01;21.00;90.20
26599;DHT22;14240;51.064;16.612;2022-09-01T14:09:26;21.00;90.50
26599;DHT22;14240;51.064;16.612;2022-09-01T14:11:53;21.10;90.40
26599;DHT22;14240;51.064;16.612;2022-09-01T14:14:19;21.10;90.20
26599;DHT22;14240;51.064;16.612;2022-09-01T14:16:45;21.10;90.10
26599;DHT22;14240;51.064;16.612;2022-09-01T14:19:11;21.10;90.50
26599;DHT22;14240;51.064;16.612;2022-09-01T14:21:38;21.20;90.60
26599;DHT22;14240;51.064;16.612;2022-09-01T14:24:04;21.20;90.40
26599;DHT22;14240;51.064;16.612;2022-09-01T14:26:30;21.20;88.00
26599;DHT22;14240;51.064;16.612;2022-09-01T14:28:55;21.10;88.10
26599;DHT22;14240;51.064;16.612;2022-09-01T14:31:22;21.00;88.30
26599;DHT22;14240;51.064;16.612;2022-09-01T14:33:48;20.90;88.80
26599;DHT22;14240;51.064;16.612;2022-09-01T14:36:22;20.80;89.00
26599;DHT22;14240;51.064;16.612;2022-09-01T14:38:48;20.70;89.80
26599;DHT22;14240;51.064;16.612;2022-09-01T14:41:16;20.70;89.60
26599;DHT22;14240;51.064;16.612;2022-09-01T14:43:44;20.70;89.90
26599;DHT22;14240;51.064;16.612;2022-09-01T14:46:10;20.70;89.00
26599;DHT22;14240;51.064;16.612;2022-09-01T14:48:38;20.60;88.60
26599;DHT22;14240;51.064;16.612;2022-09-01T14:51:04;20.60;89.20
26599;DHT22;14240;51.064;16.612;2022-09-01T14:53:30;20.60;89.70
26599;DHT22;14240;51.064;16.612;2022-09-01T14:55:57;20.40;90.00
26599;DHT22;14240;51.064;16.612;2022-09-01T14:58:23;20.30;90.20
26599;DHT22;14240;51.064;16.612;2022-09-01T15:00:51;20.20;90.90
26599;DHT22;14240;51.064;16.612;2022-09-01T15:03:16;20.10;90.80
26599;DHT22;14240;51.064;16.612;2022-09-01T15:05:42;20.10;90.90
26599;DHT22;14240;51.064;16.612;2022-09-01T15:08:09;20.00;91.10
26599;DHT22;14240;51.064;16.612;2022-09-01T15:10:35;20.00;91.40
26599;DHT22;14240;51.064;16.612;2022-09-01T15:13:01;19.90;91.80
26599;DHT22;14240;51.064;16.612;2022-09-01T15:15:28;19.90;91.90
26599;DHT22;14240;51.064;16.612;2022-09-01T15:17:54;19.90;91.80
26599;DHT22;14240;51.064;16.612;2022-09-01T15:20:21;19.90;91.90
26599;DHT22;14240;51.064;16.612;2022-09-01T15:23:06;19.80;91.70
26599;DHT22;14240;51.064;16.612;2022-09-01T15:25:32;19.70;91.90
26599;DHT22;14240;51.064;16.612;2022-09-01T15:27:58;19.70;91.90
26599;DHT22;14240;51.064;16.612;2022-09-01T15:30:24;19.70;91.70
26599;DHT22;14240;51.064;16.612;2022-09-01T15:32:51;19.70;91.30
26599;DHT22;14240;51.064;16.612;2022-09-01T15:35:18;19.70;91.50
26599;DHT22;14240;51.064;16.612;2022-09-01T15:37:48;19.80;91.40
26599;DHT22;14240;51.064;16.612;2022-09-01T15:40:14;19.80;91.30
26599;DHT22;14240;51.064;16.612;2022-09-01T15:42:41;19.80;90.60
26599;DHT22;14240;51.064;16.612;2022-09-01T15:45:11;19.80;90.40
26599;DHT22;14240;51.064;16.612;2022-09-01T15:47:37;19.80;90.10
26599;DHT22;14240;51.064;16.612;2022-09-01T15:50:04;19.80;90.30
26599;DHT22;14240;51.064;16.612;2022-09-01T15:52:31;19.80;90.70
26599;DHT22;14240;51.064;16.612;2022-09-01T15:54:57;19.80;90.80
26599;DHT22;14240;51.064;16.612;2022-09-01T15:57:22;19.80;90.40
26599;DHT22;14240;51.064;16.612;2022-09-01T15:59:48;19.80;90.50
26599;DHT22;14240;51.064;16.612;2022-09-01T16:02:14;19.80;90.70
26599;DHT22;14240;51.064;16.612;2022-09-01T16:04:42;19.80;90.20
26599;DHT22;14240;51.064;16.612;2022-09-01T16:07:07;19.80;90.50
26599;DHT22;14240;51.064;16.612;2022-09-01T16:09:33;19.70;91.00
26599;DHT22;14240;51.064;16.612;2022-09-01T16:12:01;19.70;89.80
26599;DHT22;14240;51.064;16.612;2022-09-01T16:14:27;19.70;89.20
26599;DHT22;14240;51.064;16.612;2022-09-01T16:20:02;19.60;89.60
26599;DHT22;14240;51.064;16.612;2022-09-01T16:22:35;19.60;90.20
26599;DHT22;14240;51.064;16.612;2022-09-01T16:25:16;19.60;90.10
26599;DHT22;14240;51.064;16.612;2022-09-01T16:27:44;19.60;90.20
26599;DHT22;14240;51.064;16.612;2022-09-01T16:30:19;19.60;90.30
26599;DHT22;14240;51.064;16.612;2022-09-01T16:32:47;19.60;89.90
26599;DHT22;14240;51.064;16.612;2022-09-01T16:35:14;19.50;90.10
26599;DHT22;14240;51.064;16.612;2022-09-01T16:38:07;19.50;90.80
26599;DHT22;14240;51.064;16.612;2022-09-01T16:40:49;19.50;90.70
26599;DHT22;14240;51.064;16.612;2022-09-01T16:43:37;19.50;90.80